createdAt,value
2023-03-26T00:02:21.408Z,61.60
2023-03-26T00:04:50.274Z,64.06
2023-03-26T00:07:17.988Z,57.72
2023-03-26T00:09:45.690Z,54.32
2023-03-26T00:12:13.353Z,55.84
2023-03-26T00:14:41.138Z,56.33
2023-03-26T00:17:08.981Z,58.72
2023-03-26T00:19:37.261Z,60.26
2023-03-26T00:22:06.161Z,60.63
2023-03-26T00:24:34.018Z,61.99
2023-03-26T00:27:02.085Z,62.82
2023-03-26T00:29:33.436Z,61.19
2023-03-26T00:32:01.920Z,53.64
2023-03-26T00:34:29.990Z,52.65
2023-03-26T00:37:02.702Z,54.76
2023-03-26T00:39:33.876Z,56.97
2023-03-26T00:42:07.006Z,58.65
2023-03-26T00:44:34.793Z,59.67
2023-03-26T00:47:03.762Z,59.96
2023-03-26T00:49:32.254Z,61.06
2023-03-26T00:52:00.214Z,61.29
2023-03-26T00:54:28.697Z,62.01
2023-03-26T00:56:56.545Z,63.81
2023-03-26T00:59:24.392Z,62.79
2023-03-26T01:01:55.376Z,53.34
2023-03-26T01:04:27.941Z,52.44
2023-03-26T01:06:56.432Z,54.04
2023-03-26T01:09:24.494Z,55.95
2023-03-26T01:11:52.158Z,57.18
2023-03-26T01:14:19.826Z,58.00
2023-03-26T01:16:50.137Z,59.15
2023-03-26T01:19:18.010Z,60.19
2023-03-26T01:21:47.515Z,60.48
2023-03-26T01:24:15.176Z,60.99
2023-03-26T01:26:42.837Z,60.84
2023-03-26T01:29:10.467Z,61.81
2023-03-26T01:31:38.979Z,61.94
2023-03-26T01:34:06.624Z,62.42
2023-03-26T01:36:34.303Z,66.74
2023-03-26T01:39:01.965Z,59.63
2023-03-26T01:41:29.833Z,52.14
2023-03-26T01:43:58.587Z,52.48
2023-03-26T01:46:26.324Z,54.14
2023-03-26T01:48:54.249Z,54.77
2023-03-26T01:51:21.917Z,57.47
2023-03-26T01:53:49.570Z,58.60
2023-03-26T01:56:17.232Z,59.28
2023-03-26T01:58:44.894Z,60.38
2023-03-26T02:01:12.904Z,60.36
2023-03-26T02:03:40.659Z,60.62
2023-03-26T02:06:08.599Z,61.32
2023-03-26T02:08:36.261Z,61.94
2023-03-26T02:11:04.612Z,67.34
2023-03-26T02:13:32.400Z,60.70
2023-03-26T02:16:00.201Z,52.66
2023-03-26T02:18:36.502Z,53.19
2023-03-26T02:21:04.396Z,55.33
2023-03-26T02:23:36.009Z,56.36
2023-03-26T02:26:03.818Z,58.52
2023-03-26T02:28:31.790Z,59.53
2023-03-26T02:31:02.108Z,60.04
2023-03-26T02:33:29.770Z,61.31
2023-03-26T02:36:02.226Z,61.92
2023-03-26T02:38:30.110Z,64.75
2023-03-26T02:40:57.770Z,65.75
2023-03-26T02:43:25.739Z,54.02
2023-03-26T02:45:53.605Z,52.25
2023-03-26T02:48:22.075Z,53.66
2023-03-26T02:50:50.466Z,55.39
2023-03-26T02:53:18.129Z,56.33
2023-03-26T02:55:45.903Z,57.64
2023-03-26T02:58:17.747Z,58.58
2023-03-26T03:00:47.464Z,60.65
2023-03-26T03:03:17.375Z,61.36
2023-03-26T03:05:45.139Z,61.81
2023-03-26T03:08:13.518Z,62.33
2023-03-26T03:10:41.384Z,62.84
2023-03-26T03:13:09.149Z,60.28
2023-03-26T03:15:36.914Z,53.22
2023-03-26T03:18:04.582Z,51.40
2023-03-26T03:20:35.434Z,53.65
2023-03-26T03:23:03.287Z,55.07
2023-03-26T03:25:31.145Z,57.16
2023-03-26T03:27:59.119Z,58.13
2023-03-26T03:30:26.881Z,59.71
2023-03-26T03:32:54.554Z,60.38
2023-03-26T03:35:22.328Z,60.63
2023-03-26T03:37:50.072Z,61.45
2023-03-26T03:40:17.742Z,62.53
2023-03-26T03:42:45.599Z,64.06
2023-03-26T03:45:13.262Z,54.60
2023-03-26T03:47:41.063Z,52.93
2023-03-26T03:50:08.894Z,55.45
2023-03-26T03:52:36.658Z,56.89
2023-03-26T03:55:04.419Z,58.28
2023-03-26T03:57:33.721Z,59.58
2023-03-26T04:00:01.693Z,61.17
2023-03-26T04:02:35.221Z,61.16
2023-03-26T04:05:03.161Z,61.43
2023-03-26T04:07:31.440Z,65.56
2023-03-26T04:10:00.297Z,63.96
2023-03-26T04:12:28.436Z,54.20
2023-03-26T04:14:56.262Z,51.95
2023-03-26T04:17:24.078Z,54.00
2023-03-26T04:19:53.145Z,55.33
2023-03-26T04:22:21.803Z,57.06
2023-03-26T04:24:50.389Z,58.86
2023-03-26T04:27:18.016Z,59.34
2023-03-26T04:29:45.719Z,60.93
2023-03-26T04:32:14.498Z,61.89
2023-03-26T04:34:46.176Z,65.37
2023-03-26T04:37:14.433Z,57.27
2023-03-26T04:39:42.096Z,54.22
2023-03-26T04:42:09.762Z,54.90
2023-03-26T04:44:37.519Z,57.07
2023-03-26T04:47:05.193Z,57.25
2023-03-26T04:49:32.946Z,58.31
2023-03-26T04:52:00.559Z,60.04
2023-03-26T04:54:28.275Z,61.64
2023-03-26T04:56:56.956Z,62.36
2023-03-26T04:59:26.588Z,65.52
2023-03-26T05:01:54.426Z,60.16
2023-03-26T05:04:22.173Z,51.33
2023-03-26T05:06:50.060Z,51.32
2023-03-26T05:09:17.717Z,52.43
2023-03-26T05:11:45.585Z,55.24
2023-03-26T05:14:13.249Z,58.25
2023-03-26T05:16:41.608Z,59.61
2023-03-26T05:19:09.391Z,59.40
2023-03-26T05:21:37.150Z,60.95
2023-03-26T05:24:06.449Z,62.97
2023-03-26T05:26:34.112Z,61.96
2023-03-26T05:29:03.215Z,54.58
2023-03-26T05:31:33.942Z,54.24
2023-03-26T05:34:01.894Z,55.78
2023-03-26T05:36:29.680Z,59.09
2023-03-26T05:38:57.440Z,60.69
2023-03-26T05:41:25.102Z,61.87
2023-03-26T05:43:52.829Z,64.74
2023-03-26T05:46:22.119Z,62.60
2023-03-26T05:48:50.042Z,54.04
2023-03-26T05:51:17.698Z,52.31
2023-03-26T05:53:45.461Z,53.99
2023-03-26T05:56:13.229Z,56.04
2023-03-26T05:58:42.217Z,58.05
2023-03-26T06:01:10.086Z,59.14
2023-03-26T06:03:37.863Z,60.68
2023-03-26T06:06:05.914Z,61.30
2023-03-26T06:08:33.789Z,63.92
2023-03-26T06:11:01.864Z,64.31
2023-03-26T06:13:29.516Z,54.72
2023-03-26T06:15:58.608Z,51.96
2023-03-26T06:18:26.729Z,54.22
2023-03-26T06:20:54.840Z,56.52
2023-03-26T06:23:23.575Z,56.68
2023-03-26T06:25:51.408Z,59.51
2023-03-26T06:28:19.250Z,60.46
2023-03-26T06:30:47.043Z,61.59
2023-03-26T06:33:14.708Z,62.28
2023-03-26T06:35:43.425Z,62.13
2023-03-26T06:38:11.154Z,55.75
2023-03-26T06:40:38.936Z,52.84
2023-03-26T06:43:10.669Z,55.21
2023-03-26T06:45:38.859Z,56.93
2023-03-26T06:48:06.730Z,58.61
2023-03-26T06:50:34.713Z,59.60
2023-03-26T06:53:02.551Z,59.84
2023-03-26T06:55:31.646Z,60.67
2023-03-26T06:57:59.515Z,61.48
2023-03-26T07:00:27.276Z,61.89
2023-03-26T07:02:55.109Z,61.86
2023-03-26T07:05:23.008Z,66.60
2023-03-26T07:07:50.985Z,57.22
2023-03-26T07:10:18.643Z,51.47
2023-03-26T07:12:46.716Z,52.82
2023-03-26T07:15:14.479Z,54.20
2023-03-26T07:17:42.395Z,56.20
2023-03-26T07:20:10.698Z,58.13
2023-03-26T07:22:38.590Z,58.87
2023-03-26T07:25:06.849Z,59.69
2023-03-26T07:27:34.634Z,60.34
2023-03-26T07:30:03.235Z,60.87
2023-03-26T07:32:31.202Z,60.25
2023-03-26T07:34:58.959Z,61.10
2023-03-26T07:37:27.013Z,62.22
2023-03-26T07:39:54.889Z,65.17
2023-03-26T07:42:22.636Z,54.63
2023-03-26T07:44:50.616Z,52.54
2023-03-26T07:47:18.788Z,54.07
2023-03-26T07:49:46.758Z,54.82
2023-03-26T07:52:14.625Z,56.47
2023-03-26T07:54:42.844Z,58.32
2023-03-26T07:57:10.957Z,58.94
2023-03-26T07:59:38.843Z,59.66
2023-03-26T08:02:06.806Z,59.72
2023-03-26T08:04:34.780Z,59.99
2023-03-26T08:07:02.792Z,59.88
2023-03-26T08:09:30.722Z,60.33
2023-03-26T08:11:58.988Z,60.61
2023-03-26T08:14:26.751Z,60.98
2023-03-26T08:16:54.515Z,61.19
2023-03-26T08:19:22.792Z,61.37
2023-03-26T08:21:50.664Z,61.41
2023-03-26T08:24:21.396Z,61.36
2023-03-26T08:26:49.264Z,61.27
2023-03-26T08:29:17.125Z,61.04
2023-03-26T08:31:45.503Z,61.35
2023-03-26T08:34:13.576Z,61.11
2023-03-26T08:36:41.544Z,60.77
2023-03-26T08:39:09.411Z,60.64
2023-03-26T08:41:37.183Z,60.63
2023-03-26T08:44:05.161Z,60.57
2023-03-26T08:46:33.165Z,59.66
2023-03-26T08:49:01.797Z,59.80
2023-03-26T08:51:29.663Z,59.50
2023-03-26T08:53:57.438Z,59.41
2023-03-26T08:56:26.227Z,59.35
2023-03-26T08:58:54.086Z,59.49
2023-03-26T09:01:22.061Z,59.41
2023-03-26T09:03:50.942Z,58.83
2023-03-26T09:06:18.706Z,58.65
2023-03-26T09:08:53.884Z,58.71
2023-03-26T09:11:22.681Z,58.47
2023-03-26T09:13:50.504Z,58.58
2023-03-26T09:16:18.294Z,57.93
2023-03-26T09:18:46.845Z,57.98
2023-03-26T09:21:14.769Z,58.30
2023-03-26T09:23:42.842Z,58.20
2023-03-26T09:26:10.867Z,58.06
2023-03-26T09:28:38.980Z,58.08
2023-03-26T09:31:07.129Z,57.95
2023-03-26T09:33:37.220Z,57.91
2023-03-26T09:36:05.110Z,57.53
2023-03-26T09:38:32.956Z,57.61
2023-03-26T09:41:01.541Z,56.97
2023-03-26T09:43:29.313Z,56.48
2023-03-26T09:45:57.204Z,56.38
2023-03-26T09:48:25.242Z,56.35
2023-03-26T09:50:55.225Z,56.05
2023-03-26T09:53:23.337Z,55.57
2023-03-26T09:55:51.296Z,56.03
2023-03-26T09:58:19.181Z,56.19
2023-03-26T10:00:47.164Z,56.62
2023-03-26T10:03:16.256Z,56.99
2023-03-26T10:05:44.314Z,56.93
2023-03-26T10:08:12.781Z,56.81
2023-03-26T10:10:40.755Z,56.65
2023-03-26T10:13:14.436Z,55.98
2023-03-26T10:15:42.935Z,54.43
2023-03-26T10:18:27.586Z,53.42
2023-03-26T10:20:57.920Z,53.00
2023-03-26T10:23:26.401Z,53.25
2023-03-26T10:25:54.263Z,53.61
2023-03-26T10:28:22.028Z,53.63
2023-03-26T10:30:49.904Z,53.73
2023-03-26T10:33:17.760Z,54.09
2023-03-26T10:35:45.618Z,53.90
2023-03-26T10:38:13.706Z,53.80
2023-03-26T10:40:43.330Z,53.61
2023-03-26T10:43:12.589Z,53.58
2023-03-26T10:45:40.983Z,53.40
2023-03-26T10:48:08.877Z,52.46
2023-03-26T10:50:36.823Z,52.00
2023-03-26T10:53:04.791Z,52.06
2023-03-26T10:55:33.171Z,52.10
2023-03-26T10:58:01.353Z,52.54
2023-03-26T11:00:30.232Z,52.77
2023-03-26T11:02:58.024Z,52.94
2023-03-26T11:05:25.881Z,53.04
2023-03-26T11:07:54.344Z,53.14
2023-03-26T11:10:22.006Z,53.08
2023-03-26T11:12:59.091Z,53.01
2023-03-26T11:15:27.432Z,53.15
2023-03-26T11:17:56.455Z,52.87
2023-03-26T11:20:26.605Z,52.72
2023-03-26T11:22:54.553Z,52.84
2023-03-26T11:25:22.427Z,52.85
2023-03-26T11:27:50.182Z,52.77
2023-03-26T11:30:17.952Z,52.57
2023-03-26T11:32:45.740Z,52.22
2023-03-26T11:35:13.785Z,51.77
2023-03-26T11:37:41.853Z,51.02
2023-03-26T11:40:09.727Z,51.01
2023-03-26T11:42:37.691Z,50.93
2023-03-26T11:45:05.558Z,50.18
2023-03-26T11:47:33.301Z,50.49
2023-03-26T11:50:01.503Z,49.70
2023-03-26T11:52:29.801Z,49.44
2023-03-26T11:54:59.684Z,48.78
2023-03-26T11:57:28.828Z,48.43
2023-03-26T11:59:57.950Z,48.63
2023-03-26T12:02:26.481Z,49.07
2023-03-26T12:04:55.751Z,49.25
2023-03-26T12:07:23.832Z,49.28
2023-03-26T12:09:52.209Z,49.30
2023-03-26T12:12:20.173Z,49.66
2023-03-26T12:14:47.933Z,50.25
2023-03-26T12:17:15.802Z,50.09
2023-03-26T12:19:44.080Z,49.53
2023-03-26T12:22:13.374Z,49.03
2023-03-26T12:24:47.795Z,49.01
2023-03-26T12:27:20.472Z,49.35
2023-03-26T12:29:48.976Z,49.46
2023-03-26T12:32:17.095Z,49.38
2023-03-26T12:34:45.170Z,49.16
2023-03-26T12:37:12.867Z,49.05
2023-03-26T12:40:10.666Z,49.26
2023-03-26T12:44:49.730Z,49.71
2023-03-26T12:45:19.493Z,50.01
2023-03-26T12:48:01.762Z,49.18
2023-03-26T12:50:34.455Z,49.09
2023-03-26T12:53:03.969Z,48.44
2023-03-26T12:55:31.826Z,47.57
2023-03-26T12:58:00.206Z,46.64
2023-03-26T13:00:47.930Z,46.87
2023-03-26T13:03:15.944Z,47.29
2023-03-26T13:05:44.600Z,47.88
2023-03-26T13:08:12.876Z,48.72
2023-03-26T13:10:41.570Z,49.27
2023-03-26T13:13:10.300Z,49.85
2023-03-26T13:15:39.245Z,50.67
2023-03-26T13:18:07.945Z,52.41
2023-03-26T13:20:37.872Z,52.61
2023-03-26T13:23:06.115Z,53.26
2023-03-26T13:25:34.082Z,54.32
2023-03-26T13:28:02.154Z,55.24
2023-03-26T13:30:31.436Z,55.69
2023-03-26T13:33:00.093Z,57.14
2023-03-26T13:35:28.294Z,58.60
2023-03-26T13:37:56.590Z,58.52
2023-03-26T13:40:26.095Z,57.44
2023-03-26T13:42:55.081Z,57.89
2023-03-26T13:45:23.996Z,57.51
2023-03-26T13:47:52.042Z,57.42
2023-03-26T13:50:22.495Z,56.91
2023-03-26T13:52:55.771Z,57.05
2023-03-26T13:55:23.637Z,57.25
2023-03-26T13:57:55.547Z,57.64
2023-03-26T14:00:24.087Z,57.50
2023-03-26T14:02:52.645Z,58.30
2023-03-26T14:05:20.692Z,58.25
2023-03-26T14:07:48.920Z,58.65
2023-03-26T14:10:16.982Z,58.64
2023-03-26T14:12:49.587Z,58.61
2023-03-26T14:15:17.909Z,58.28
2023-03-26T14:17:47.815Z,58.31
2023-03-26T14:20:15.716Z,57.90
2023-03-26T14:22:43.488Z,57.25
2023-03-26T14:25:17.277Z,57.03
2023-03-26T14:27:45.086Z,56.90
2023-03-26T14:30:12.917Z,56.82
2023-03-26T14:32:41.107Z,56.46
2023-03-26T14:35:09.980Z,56.16
2023-03-26T14:37:38.613Z,55.89
2023-03-26T14:40:13.085Z,55.71
2023-03-26T14:42:40.951Z,55.67
2023-03-26T14:45:08.613Z,55.48
2023-03-26T14:47:36.760Z,55.57
2023-03-26T14:50:04.735Z,55.49
2023-03-26T14:52:32.521Z,55.03
2023-03-26T14:55:00.497Z,54.63
2023-03-26T14:57:28.373Z,54.34
2023-03-26T14:59:56.122Z,53.78
2023-03-26T15:02:24.358Z,53.10
2023-03-26T15:04:52.368Z,53.00
2023-03-26T15:07:20.135Z,52.67
2023-03-26T15:09:49.434Z,53.05
2023-03-26T15:12:17.201Z,53.02
2023-03-26T15:14:46.187Z,52.85
2023-03-26T15:17:13.954Z,52.80
2023-03-26T15:19:41.717Z,52.74
2023-03-26T15:22:10.914Z,51.68
2023-03-26T15:24:38.582Z,51.58
2023-03-26T15:27:06.544Z,51.81
2023-03-26T15:29:35.845Z,51.73
2023-03-26T15:32:03.769Z,51.49
2023-03-26T15:34:32.089Z,51.92
2023-03-26T15:37:00.568Z,51.89
2023-03-26T15:39:28.333Z,51.78
2023-03-26T15:41:56.302Z,51.81
2023-03-26T15:44:25.515Z,51.94
2023-03-26T15:46:53.675Z,52.11
2023-03-26T15:49:21.437Z,52.20
2023-03-26T15:51:49.512Z,52.27
2023-03-26T15:54:21.629Z,52.28
2023-03-26T15:56:55.946Z,52.48
2023-03-26T15:59:29.465Z,52.51
2023-03-26T16:02:04.320Z,52.75
2023-03-26T16:04:32.733Z,52.81
2023-03-26T16:07:03.854Z,52.84
2023-03-26T16:09:32.641Z,52.73
2023-03-26T16:12:00.598Z,52.70
2023-03-26T16:14:28.465Z,52.63
2023-03-26T16:16:56.228Z,52.63
2023-03-26T16:19:24.505Z,52.74
2023-03-26T16:21:52.680Z,52.75
2023-03-26T16:24:20.750Z,52.67
2023-03-26T16:26:48.619Z,52.96
2023-03-26T16:29:16.380Z,53.19
2023-03-26T16:31:44.672Z,53.21
2023-03-26T16:34:12.423Z,53.44
2023-03-26T16:36:40.821Z,53.38
2023-03-26T16:39:08.985Z,53.42
2023-03-26T16:41:37.560Z,53.27
2023-03-26T16:44:05.532Z,53.47
2023-03-26T16:46:33.637Z,53.59
2023-03-26T16:49:01.482Z,53.60
2023-03-26T16:51:29.542Z,53.94
2023-03-26T16:53:57.946Z,54.38
2023-03-26T16:56:28.132Z,54.65
2023-03-26T16:58:56.419Z,54.00
2023-03-26T17:01:27.613Z,53.88
2023-03-26T17:03:55.616Z,53.88
2023-03-26T17:06:23.601Z,53.72
2023-03-26T17:08:53.579Z,54.18
2023-03-26T17:11:21.825Z,55.27
2023-03-26T17:13:50.061Z,55.45
2023-03-26T17:16:18.077Z,55.65
2023-03-26T17:18:46.340Z,55.90
2023-03-26T17:21:14.380Z,56.47
2023-03-26T17:23:42.449Z,56.81
2023-03-26T17:26:10.110Z,57.63
2023-03-26T17:28:37.879Z,57.80
2023-03-26T17:31:05.881Z,58.21
2023-03-26T17:33:35.024Z,58.13
2023-03-26T17:36:02.863Z,58.39
2023-03-26T17:38:32.275Z,58.46
2023-03-26T17:41:00.062Z,58.46
2023-03-26T17:43:28.661Z,58.80
2023-03-26T17:46:02.913Z,58.91
2023-03-26T17:48:35.120Z,58.90
2023-03-26T17:51:02.809Z,58.98
2023-03-26T17:53:33.344Z,59.34
2023-03-26T17:56:03.560Z,59.74
2023-03-26T17:58:32.035Z,60.08
2023-03-26T18:00:59.724Z,60.33
2023-03-26T18:03:29.589Z,60.58
2023-03-26T18:05:58.518Z,60.99
2023-03-26T18:08:26.375Z,60.95
2023-03-26T18:10:54.296Z,61.70
2023-03-26T18:13:22.217Z,61.60
2023-03-26T18:15:49.971Z,61.58
2023-03-26T18:18:18.657Z,61.51
2023-03-26T18:20:47.262Z,61.46
2023-03-26T18:23:15.011Z,60.85
2023-03-26T18:25:42.871Z,60.58
2023-03-26T18:28:10.739Z,60.54
2023-03-26T18:30:38.706Z,60.74
2023-03-26T18:33:06.664Z,61.13
2023-03-26T18:35:34.552Z,61.36
2023-03-26T18:38:03.748Z,61.50
2023-03-26T18:40:31.505Z,61.56
2023-03-26T18:42:59.263Z,61.48
2023-03-26T18:45:27.439Z,61.85
2023-03-26T18:47:56.032Z,61.45
2023-03-26T18:50:23.807Z,60.88
2023-03-26T18:52:51.550Z,61.42
2023-03-26T18:55:19.418Z,61.64
2023-03-26T18:57:47.181Z,62.05
2023-03-26T19:00:17.097Z,62.09
2023-03-26T19:02:44.940Z,62.21
2023-03-26T19:05:12.940Z,68.85
2023-03-26T19:07:41.134Z,66.36
2023-03-26T19:10:08.971Z,53.99
2023-03-26T19:12:37.766Z,51.44
2023-03-26T19:15:08.100Z,53.13
2023-03-26T19:17:38.430Z,54.89
2023-03-26T19:20:09.974Z,56.12
2023-03-26T19:22:38.241Z,56.72
2023-03-26T19:25:06.001Z,57.39
2023-03-26T19:27:33.761Z,57.74
2023-03-26T19:30:01.526Z,58.76
2023-03-26T19:32:29.748Z,59.69
2023-03-26T19:34:57.469Z,60.06
2023-03-26T19:37:25.340Z,60.28
2023-03-26T19:39:53.106Z,60.84
2023-03-26T19:42:21.391Z,61.20
2023-03-26T19:44:49.455Z,61.00
2023-03-26T19:47:17.317Z,61.23
2023-03-26T19:49:45.182Z,61.52
2023-03-26T19:52:12.950Z,61.90
2023-03-26T19:54:40.711Z,61.96
2023-03-26T19:57:28.237Z,69.62
2023-03-26T19:59:56.207Z,63.16
2023-03-26T20:02:23.998Z,52.25
2023-03-26T20:04:51.838Z,51.19
2023-03-26T20:07:20.273Z,52.74
2023-03-26T20:09:48.824Z,54.18
2023-03-26T20:12:20.763Z,55.31
2023-03-26T20:14:49.041Z,56.09
2023-03-26T20:17:16.906Z,56.98
2023-03-26T20:19:44.671Z,57.46
2023-03-26T20:22:12.433Z,57.89
2023-03-26T20:24:40.609Z,58.24
2023-03-26T20:27:08.372Z,58.74
2023-03-26T20:29:36.953Z,59.07
2023-03-26T20:32:09.649Z,59.48
2023-03-26T20:34:38.621Z,59.92
2023-03-26T20:37:07.206Z,60.15
2023-03-26T20:39:34.973Z,60.40
2023-03-26T20:42:02.733Z,60.67
2023-03-26T20:44:31.016Z,60.97
2023-03-26T20:46:59.296Z,61.22
2023-03-26T20:49:29.605Z,61.55
2023-03-26T20:51:57.882Z,61.70
2023-03-26T20:54:25.549Z,61.85
2023-03-26T20:56:53.720Z,68.61
2023-03-26T20:59:22.406Z,63.97
2023-03-26T21:01:50.538Z,52.81
2023-03-26T21:04:19.388Z,51.29
2023-03-26T21:06:47.029Z,53.29
2023-03-26T21:09:18.073Z,55.24
2023-03-26T21:11:46.054Z,56.67
2023-03-26T21:14:13.903Z,57.62
2023-03-26T21:16:41.586Z,57.65
2023-03-26T21:19:10.353Z,58.82
2023-03-26T21:21:38.013Z,59.28
2023-03-26T21:24:06.199Z,60.34
2023-03-26T21:26:33.849Z,61.03
2023-03-26T21:29:09.404Z,62.04
2023-03-26T21:31:38.227Z,68.15
2023-03-26T21:34:06.069Z,63.61
2023-03-26T21:36:33.865Z,53.65
2023-03-26T21:39:01.585Z,52.95
2023-03-26T21:41:29.245Z,55.75
2023-03-26T21:43:57.009Z,57.63
2023-03-26T21:46:24.803Z,59.37
2023-03-26T21:48:52.558Z,60.26
2023-03-26T21:51:20.306Z,61.00
2023-03-26T21:53:49.090Z,61.58
2023-03-26T21:56:16.749Z,65.33
2023-03-26T21:58:44.514Z,65.39
2023-03-26T22:01:12.408Z,54.55
2023-03-26T22:03:40.259Z,53.14
2023-03-26T22:06:08.119Z,55.36
2023-03-26T22:08:35.877Z,57.49
2023-03-26T22:11:03.513Z,59.04
2023-03-26T22:13:31.305Z,59.95
2023-03-26T22:15:59.013Z,60.30
2023-03-26T22:18:30.356Z,60.51
2023-03-26T22:20:59.405Z,61.95
2023-03-26T22:23:27.280Z,68.24
2023-03-26T22:25:55.047Z,62.96
2023-03-26T22:28:22.704Z,53.26
2023-03-26T22:30:50.707Z,52.77
2023-03-26T22:33:18.437Z,55.15
2023-03-26T22:35:46.327Z,57.11
2023-03-26T22:38:14.068Z,58.65
2023-03-26T22:40:41.731Z,59.70
2023-03-26T22:43:09.605Z,61.04
2023-03-26T22:45:37.875Z,62.00
2023-03-26T22:48:05.746Z,67.46
2023-03-26T22:50:33.538Z,62.40
2023-03-26T22:53:01.367Z,53.26
2023-03-26T22:55:29.788Z,53.38
2023-03-26T22:57:57.933Z,56.02
2023-03-26T23:00:26.746Z,58.27
2023-03-26T23:02:56.082Z,59.86
2023-03-26T23:05:23.977Z,60.89
2023-03-26T23:07:52.467Z,61.51
2023-03-26T23:10:21.861Z,67.03
2023-03-26T23:12:49.846Z,62.08
2023-03-26T23:15:17.592Z,53.09
2023-03-26T23:17:45.454Z,53.28
2023-03-26T23:20:22.753Z,55.66
2023-03-26T23:22:50.831Z,57.65
2023-03-26T23:25:18.588Z,59.64
2023-03-26T23:27:46.244Z,60.81
2023-03-26T23:30:15.347Z,61.70
2023-03-26T23:32:43.586Z,67.25
2023-03-26T23:35:11.483Z,63.10
2023-03-26T23:37:42.681Z,53.52
2023-03-26T23:40:10.907Z,52.98
2023-03-26T23:42:38.671Z,55.43
2023-03-26T23:45:06.333Z,57.84
2023-03-26T23:47:37.598Z,58.97
2023-03-26T23:50:05.356Z,59.05
2023-03-26T23:52:33.107Z,59.41
2023-03-26T23:55:01.380Z,61.73
2023-03-26T23:57:29.346Z,68.83
2023-03-26T23:59:57.010Z,64.77
